Time;durP1;ratioP1;P1;durP2;ratioP2;P2;SDS_P1;SDS_P2;PMS_P1;PMS_P2;Temp;Humidity;BMP_temperature;BMP_pressure;BME280_temperature;BME280_humidity;BME280_pressure;Samples;Min_cycle;Max_cycle;Signal;HPM_P1;HPM_P2
2021/06/28 00:00:34;;;;;;;3.75;1.65;;;;;;;20.78;74.99;99146.48;1727830;80;21003;-54
2021/06/28 00:03:00;;;;;;;2.92;1.10;;;;;;;20.76;75.01;99142.17;1729825;80;21044;-53
2021/06/28 00:05:27;;;;;;;2.10;1.10;;;;;;;20.70;75.02;99140.92;1726946;80;21061;-55
2021/06/28 00:07:53;;;;;;;1.30;1.20;;;;;;;20.66;75.10;99146.36;1731435;80;21798;-53
2021/06/28 00:10:26;;;;;;;3.90;1.50;;;;;;;20.62;75.21;99140.83;1730710;80;20942;-55
2021/06/28 00:12:54;;;;;;;5.42;1.30;;;;;;;20.59;75.20;99149.83;1726496;80;21077;-55
2021/06/28 00:15:23;;;;;;;1.92;1.10;;;;;;;20.55;75.31;99144.32;1731166;80;20950;-55
2021/06/28 00:17:49;;;;;;;1.90;1.10;;;;;;;20.52;75.38;99141.38;1732716;80;21350;-54
2021/06/28 00:20:16;;;;;;;5.33;1.67;;;;;;;20.52;75.40;99144.61;1725927;80;22145;-54
2021/06/28 00:22:44;;;;;;;1.95;1.20;;;;;;;20.49;75.45;99151.27;1729875;80;20899;-56
2021/06/28 00:25:13;;;;;;;4.12;1.67;;;;;;;20.46;75.50;99150.19;1663883;83;21438;-55
2021/06/28 00:27:42;;;;;;;1.72;1.30;;;;;;;20.44;75.57;99155.44;1690382;82;21748;-55
2021/06/28 00:30:11;;;;;;;1.67;1.40;;;;;;;20.42;75.63;99161.56;1724778;80;21033;-54
2021/06/28 00:32:38;;;;;;;1.22;1.12;;;;;;;20.40;75.80;99159.00;1722122;80;22163;-56
2021/06/28 00:35:06;;;;;;;1.47;1.37;;;;;;;20.38;75.83;99156.41;1728098;80;21325;-54
2021/06/28 00:37:33;;;;;;;2.25;1.35;;;;;;;20.38;75.88;99161.02;1725298;80;21133;-56
2021/06/28 00:40:00;;;;;;;1.55;1.10;;;;;;;20.37;75.92;99157.42;1726149;80;22332;-55
2021/06/28 00:42:27;;;;;;;1.10;1.00;;;;;;;20.36;75.90;99153.47;1726256;80;21364;-56
2021/06/28 00:44:53;;;;;;;2.80;1.27;;;;;;;20.34;75.99;99160.44;1725948;80;21112;-56
2021/06/28 00:47:20;;;;;;;1.57;1.07;;;;;;;20.33;75.94;99158.69;1721827;80;21061;-55
2021/06/28 00:49:47;;;;;;;2.30;1.62;;;;;;;20.34;75.92;99162.31;1728594;80;21140;-56
2021/06/28 00:52:14;;;;;;;2.15;1.35;;;;;;;20.34;75.82;99154.98;1728101;80;20969;-54
2021/06/28 00:54:41;;;;;;;1.45;1.30;;;;;;;20.35;75.82;99159.44;1723102;80;21037;-54
2021/06/28 00:57:08;;;;;;;1.98;1.47;;;;;;;20.36;75.65;99152.97;1723950;80;21596;-54
2021/06/28 00:59:34;;;;;;;2.05;1.90;;;;;;;20.36;75.61;99157.06;1723647;80;21069;-55
2021/06/28 01:02:03;;;;;;;1.57;1.22;;;;;;;20.33;75.56;99157.31;1722676;80;21053;-55
2021/06/28 01:04:29;;;;;;;3.05;1.50;;;;;;;20.29;75.52;99167.34;1726681;80;21062;-55
2021/06/28 01:06:56;;;;;;;1.40;1.30;;;;;;;20.23;75.55;99171.55;1724840;80;21089;-55
2021/06/28 01:09:23;;;;;;;3.15;1.32;;;;;;;20.19;75.57;99166.01;1722170;80;21065;-54
2021/06/28 01:11:49;;;;;;;2.67;1.32;;;;;;;20.15;75.63;99171.44;1724987;80;21101;-54
2021/06/28 01:14:16;;;;;;;2.25;1.82;;;;;;;20.09;75.69;99170.64;1724944;80;21061;-54
2021/06/28 01:16:43;;;;;;;2.08;1.10;;;;;;;20.06;75.71;99170.95;1726854;80;21070;-54
2021/06/28 01:19:14;;;;;;;1.30;1.20;;;;;;;20.01;75.75;99174.11;1724286;80;21077;-53
2021/06/28 01:21:41;;;;;;;4.08;1.20;;;;;;;19.98;75.85;99166.73;1672364;83;22709;-54
2021/06/28 01:24:08;;;;;;;3.80;1.40;;;;;;;19.95;75.85;99156.09;1722379;80;21069;-53
2021/06/28 01:26:35;;;;;;;2.45;1.20;;;;;;;19.92;75.90;99165.94;1706863;82;22513;-55
2021/06/28 01:29:03;;;;;;;1.20;1.10;;;;;;;19.92;75.92;99169.53;1727176;80;21487;-54
2021/06/28 01:31:29;;;;;;;1.20;1.10;;;;;;;19.91;75.94;99164.20;1729125;80;21231;-54
2021/06/28 01:33:56;;;;;;;2.55;1.30;;;;;;;19.88;75.94;99161.29;1724310;80;21073;-56
2021/06/28 01:36:23;;;;;;;2.50;1.57;;;;;;;19.86;75.95;99166.53;1723568;80;21117;-54
2021/06/28 01:38:51;;;;;;;1.75;1.27;;;;;;;19.83;75.97;99166.81;1721129;80;21152;-55
2021/06/28 01:41:17;;;;;;;2.17;1.32;;;;;;;19.81;75.98;99171.59;1727666;80;21088;-55
2021/06/28 01:43:43;;;;;;;3.77;1.25;;;;;;;19.78;76.03;99167.27;1728251;80;21089;-54
2021/06/28 01:46:10;;;;;;;1.47;0.93;;;;;;;19.78;76.14;99173.23;1725114;80;21129;-54
2021/06/28 01:48:39;;;;;;;2.50;1.42;;;;;;;19.78;76.17;99173.23;1725216;80;21108;-54
2021/06/28 01:51:06;;;;;;;1.90;1.50;;;;;;;19.77;76.14;99173.73;1725561;80;20997;-54
2021/06/28 01:53:33;;;;;;;3.30;1.20;;;;;;;19.78;76.08;99180.92;1732080;80;21176;-52
2021/06/28 01:56:04;;;;;;;1.87;1.30;;;;;;;19.76;76.04;99179.33;1723771;80;21109;-54
2021/06/28 01:58:28;;;;;;;1.27;1.17;;;;;;;19.73;75.98;99181.02;1720621;80;22108;-55
2021/06/28 02:00:54;;;;;;;4.15;1.17;;;;;;;19.69;75.98;99180.92;1719716;80;21089;-52
2021/06/28 02:03:23;;;;;;;1.50;1.30;;;;;;;19.68;75.99;99192.85;1729082;80;21320;-52
2021/06/28 02:05:54;;;;;;;1.57;1.47;;;;;;;19.68;76.01;99184.66;1729244;80;20926;-53
2021/06/28 02:08:25;;;;;;;2.98;1.57;;;;;;;19.65;75.93;99190.77;1728654;80;20930;-54
2021/06/28 02:10:55;;;;;;;1.72;1.60;;;;;;;19.62;75.96;99192.44;1722514;80;21743;-54
2021/06/28 02:13:24;;;;;;;1.37;1.25;;;;;;;19.59;76.02;99192.72;1724993;80;21096;-53
2021/06/28 02:15:52;;;;;;;1.30;1.07;;;;;;;19.56;76.06;99196.25;1726915;80;21168;-52
2021/06/28 02:18:22;;;;;;;3.87;1.27;;;;;;;19.52;76.16;99199.77;1725061;80;21152;-52
2021/06/28 02:20:48;;;;;;;2.05;1.77;;;;;;;19.50;76.20;99194.08;1729829;80;21331;-53
2021/06/28 02:23:23;;;;;;;2.05;1.90;;;;;;;19.47;76.32;99190.26;1727250;80;21050;-53
2021/06/28 02:25:57;;;;;;;2.15;2.02;;;;;;;19.48;76.38;99192.02;1722096;80;21765;-52
2021/06/28 02:28:25;;;;;;;;;;;;;;;19.47;76.41;99197.08;1726151;80;21081;-52
2021/06/28 02:30:52;;;;;;;2.90;1.47;;;;;;;19.46;76.46;99192.63;1725947;80;20658;-52
2021/06/28 02:33:19;;;;;;;3.30;1.57;;;;;;;19.44;76.43;99194.13;1723268;80;21143;-52
2021/06/28 02:35:45;;;;;;;2.65;1.50;;;;;;;19.41;76.46;99194.91;1724198;80;22207;-54
2021/06/28 02:38:11;;;;;;;2.60;1.22;;;;;;;19.40;76.49;99194.54;1726752;80;21508;-52
2021/06/28 02:40:38;;;;;;;3.58;1.57;;;;;;;19.38;76.49;99194.71;1729385;80;21544;-53
2021/06/28 02:43:04;;;;;;;1.72;1.30;;;;;;;19.37;76.49;99194.34;1719792;80;21069;-52
2021/06/28 02:45:30;;;;;;;1.40;1.30;;;;;;;19.37;76.49;99194.84;1724362;80;21037;-53
2021/06/28 02:47:58;;;;;;;3.22;1.62;;;;;;;19.38;76.47;99194.71;1723845;80;23151;-54
2021/06/28 02:50:24;;;;;;;6.37;2.22;;;;;;;19.38;76.34;99200.17;1722249;80;21658;-54
2021/06/28 02:52:50;;;;;;;3.70;1.82;;;;;;;19.38;76.33;99196.58;1725802;80;21029;-52
2021/06/28 02:55:17;;;;;;;3.20;2.58;;;;;;;19.37;76.20;99192.98;1714234;80;21081;-55
2021/06/28 02:57:43;;;;;;;7.08;1.50;;;;;;;19.36;76.09;99197.21;1713417;81;21329;-53
2021/06/28 03:00:12;;;;;;;1.47;1.37;;;;;;;19.34;76.06;99200.08;1710445;81;22219;-51
2021/06/28 03:02:39;;;;;;;2.42;1.77;;;;;;;19.30;76.10;99193.20;1715168;81;20899;-54
2021/06/28 03:05:06;;;;;;;1.32;1.00;;;;;;;19.28;76.13;99191.11;1711983;81;20997;-54
2021/06/28 03:08:52;;;;;;;2.12;1.35;;;;;;;19.32;76.26;99199.85;1791051;78;28146;-53
2021/06/28 03:11:19;;;;;;;2.02;1.50;;;;;;;19.30;76.32;99204.61;1770661;79;21287;-51
2021/06/28 03:13:47;;;;;;;1.82;1.70;;;;;;;19.26;76.34;99210.34;1772320;79;21113;-52
2021/06/28 03:16:15;;;;;;;4.37;1.67;;;;;;;19.24;76.33;99198.70;1771044;79;20882;-52
2021/06/28 03:18:42;;;;;;;1.92;1.70;;;;;;;19.26;76.33;99205.39;1772725;79;20922;-52
2021/06/28 03:21:10;;;;;;;1.67;1.30;;;;;;;19.26;76.31;99208.11;1773179;78;21451;-51
2021/06/28 03:23:40;;;;;;;1.60;1.50;;;;;;;19.24;76.29;99208.25;1764392;79;20970;-52
2021/06/28 03:26:08;;;;;;;3.25;1.70;;;;;;;19.24;76.27;99217.80;1766172;79;21594;-52
2021/06/28 03:28:34;;;;;;;3.62;1.60;;;;;;;19.25;76.27;99220.03;1765257;79;20977;-51
2021/06/28 03:31:03;;;;;;;3.20;1.57;;;;;;;19.27;76.19;99220.76;1766058;79;21078;-53
2021/06/28 03:33:29;;;;;;;2.65;1.20;;;;;;;19.28;76.13;99211.07;1766614;79;22035;-53
2021/06/28 03:35:55;;;;;;;1.98;1.85;;;;;;;19.32;75.98;99220.31;1765279;78;21749;-53
2021/06/28 03:38:22;;;;;;;2.05;1.65;;;;;;;19.32;75.93;99211.62;1764474;78;21174;-51
2021/06/28 03:40:48;;;;;;;2.75;2.05;;;;;;;19.33;75.81;99220.18;1767772;79;21438;-52
2021/06/28 03:43:14;;;;;;;7.87;3.50;;;;;;;19.31;75.73;99218.63;1738113;79;21116;-54
2021/06/28 03:45:41;;;;;;;1.32;1.10;;;;;;;19.28;75.72;99217.89;1739676;79;21140;-54
2021/06/28 03:48:10;;;;;;;2.42;1.37;;;;;;;19.28;75.72;99217.89;1732562;79;21064;-54
2021/06/28 03:50:37;;;;;;;1.22;1.12;;;;;;;19.29;75.67;99217.39;1733856;79;21556;-55
2021/06/28 03:53:04;;;;;;;5.22;1.52;;;;;;;19.31;75.66;99214.53;1733260;79;21478;-54
2021/06/28 03:55:31;;;;;;;2.90;1.20;;;;;;;19.34;75.55;99218.31;1740312;79;21371;-54
2021/06/28 03:57:58;;;;;;;4.62;1.22;;;;;;;19.36;75.50;99223.14;1736027;79;21377;-54
2021/06/28 04:00:25;;;;;;;2.92;1.37;;;;;;;19.39;75.34;99220.13;1703904;81;21832;-56
2021/06/28 04:02:52;;;;;;;1.50;1.40;;;;;;;19.40;75.28;99225.92;1699036;82;21481;-55
2021/06/28 04:05:21;;;;;;;3.62;2.05;;;;;;;19.43;75.20;99226.52;1694051;82;21610;-54
2021/06/28 04:07:51;;;;;;;1.17;1.07;;;;;;;19.49;75.00;99231.42;1691625;82;21085;-55
2021/06/28 04:10:19;;;;;;;1.95;1.27;;;;;;;19.54;74.81;99231.02;1687888;82;22103;-54
2021/06/28 04:12:51;;;;;;;1.95;1.30;;;;;;;19.58;74.74;99224.25;1680229;82;21085;-55
2021/06/28 04:15:17;;;;;;;2.67;1.40;;;;;;;19.64;74.62;99224.56;1683443;82;21596;-54
2021/06/28 04:17:51;;;;;;;3.85;1.12;;;;;;;19.68;74.44;99220.16;1679978;82;21063;-54
2021/06/28 04:20:20;;;;;;;1.50;1.40;;;;;;;19.71;74.37;99220.74;1680842;82;20986;-53
2021/06/28 04:22:47;;;;;;;3.47;1.05;;;;;;;19.78;74.26;99225.11;1680518;82;21154;-54
2021/06/28 04:25:16;;;;;;;2.95;1.35;;;;;;;19.83;74.18;99212.73;1681435;82;21399;-55
2021/06/28 04:27:43;;;;;;;2.30;0.90;;;;;;;19.90;73.99;99211.67;1679073;82;21114;-54
2021/06/28 04:30:11;;;;;;;2.75;1.27;;;;;;;19.94;73.66;99211.72;1678373;82;21121;-54
2021/06/28 04:32:38;;;;;;;3.08;1.47;;;;;;;19.97;73.50;99210.08;1680535;82;21109;-54
2021/06/28 04:35:06;;;;;;;1.52;1.42;;;;;;;19.99;73.07;99214.87;1680394;82;21309;-55
2021/06/28 04:37:32;;;;;;;3.80;1.50;;;;;;;19.97;72.77;99218.27;1681853;82;20976;-54
2021/06/28 04:39:59;;;;;;;2.37;1.10;;;;;;;19.94;72.54;99212.59;1682654;82;22065;-55
2021/06/28 04:42:25;;;;;;;1.75;1.20;;;;;;;19.94;72.72;99209.86;1680578;82;21056;-56
2021/06/28 04:44:52;;;;;;;1.15;1.00;;;;;;;19.98;72.66;99214.03;1678375;82;21667;-55
2021/06/28 04:47:18;;;;;;;1.60;1.32;;;;;;;20.00;72.59;99207.90;1677526;82;21134;-53
2021/06/28 04:49:44;;;;;;;3.02;1.20;;;;;;;20.07;72.72;99209.56;1679490;82;21110;-54
2021/06/28 04:52:11;;;;;;;2.37;1.20;;;;;;;20.18;72.41;99209.88;1675809;82;21153;-54
2021/06/28 04:54:37;;;;;;;1.67;1.20;;;;;;;20.28;72.32;99206.61;1677187;82;21101;-55
2021/06/28 04:57:04;;;;;;;2.75;1.10;;;;;;;20.35;72.08;99211.37;1680875;82;21074;-53
2021/06/28 04:59:30;;;;;;;1.40;1.30;;;;;;;20.42;71.38;99203.92;1681711;82;21145;-55
2021/06/28 05:01:56;;;;;;;1.35;1.00;;;;;;;20.45;71.25;99205.01;1679831;82;21369;-55
2021/06/28 05:04:23;;;;;;;1.77;1.00;;;;;;;20.51;71.17;99204.40;1678410;82;21023;-53
2021/06/28 05:06:49;;;;;;;1.47;1.37;;;;;;;20.58;70.99;99206.41;1679957;82;21553;-55
2021/06/28 05:09:16;;;;;;;1.10;0.98;;;;;;;20.66;70.54;99203.78;1688384;83;21093;-54
2021/06/28 05:11:42;;;;;;;1.10;1.00;;;;;;;20.72;70.45;99206.41;1688007;83;21117;-56
2021/06/28 05:14:11;;;;;;;2.60;1.00;;;;;;;20.80;69.50;99208.38;1669866;83;21101;-56
2021/06/28 05:16:39;;;;;;;2.62;1.05;;;;;;;20.83;68.88;99208.09;1689975;83;21825;-55
2021/06/28 05:19:05;;;;;;;1.50;1.10;;;;;;;20.87;68.89;99206.25;1690004;83;21836;-54
2021/06/28 05:21:33;;;;;;;0.85;0.80;;;;;;;20.93;68.57;99207.51;1690934;83;21662;-56
2021/06/28 05:23:59;;;;;;;1.95;1.00;;;;;;;20.97;67.55;99206.20;1689061;83;21049;-55
2021/06/28 05:26:25;;;;;;;4.20;0.78;;;;;;;21.01;67.75;99201.63;1692429;82;21108;-53
2021/06/28 05:28:52;;;;;;;1.52;1.00;;;;;;;21.08;67.27;99217.81;1691398;83;21102;-54
2021/06/28 05:31:18;;;;;;;2.52;1.00;;;;;;;21.12;66.56;99214.23;1702790;83;21070;-54
2021/06/28 05:33:44;;;;;;;4.67;1.05;;;;;;;21.15;66.41;99206.59;1704209;82;21093;-56
2021/06/28 05:36:11;;;;;;;7.30;1.55;;;;;;;21.18;66.10;99210.91;1695175;82;21921;-55
2021/06/28 05:38:37;;;;;;;1.40;1.00;;;;;;;21.21;65.84;99207.87;1694451;82;22514;-54
2021/06/28 05:41:04;;;;;;;2.98;1.00;;;;;;;21.22;65.84;99198.66;1689774;82;21576;-54
2021/06/28 05:43:30;;;;;;;2.15;0.80;;;;;;;21.27;66.01;99196.80;1688888;83;21077;-56
2021/06/28 05:45:57;;;;;;;0.80;0.80;;;;;;;21.33;66.04;99203.91;1686999;82;21078;-55
2021/06/28 05:48:23;;;;;;;1.52;0.90;;;;;;;21.42;66.27;99204.86;1691428;83;21066;-57
2021/06/28 05:50:50;;;;;;;1.27;1.00;;;;;;;21.53;65.97;99204.09;1689987;83;21121;-56
2021/06/28 05:53:16;;;;;;;1.02;0.90;;;;;;;21.60;65.27;99198.02;1689961;83;22250;-57
2021/06/28 05:55:43;;;;;;;2.92;0.90;;;;;;;21.66;64.89;99196.01;1692767;83;21070;-54
2021/06/28 05:58:09;;;;;;;1.20;1.00;;;;;;;21.69;65.32;99204.75;1702003;82;21368;-56
2021/06/28 06:00:36;;;;;;;2.62;0.80;;;;;;;21.72;64.62;99211.30;1692188;83;21555;-55
2021/06/28 06:03:04;;;;;;;0.85;0.80;;;;;;;21.73;64.11;99199.33;1696859;83;21588;-53
2021/06/28 06:05:30;;;;;;;4.97;0.80;;;;;;;21.75;64.40;99198.66;1705306;83;21128;-54
2021/06/28 06:07:57;;;;;;;1.22;0.88;;;;;;;21.80;64.17;99199.55;1695843;83;21070;-55
2021/06/28 06:10:24;;;;;;;4.45;0.90;;;;;;;21.88;64.21;99206.46;1693369;82;21058;-55
2021/06/28 06:12:51;;;;;;;1.30;1.20;;;;;;;21.95;63.80;99216.30;1699211;83;21173;-56
2021/06/28 06:15:17;;;;;;;1.00;0.88;;;;;;;22.03;63.53;99209.55;1687648;83;21105;-56
2021/06/28 06:17:45;;;;;;;5.05;0.80;;;;;;;22.08;63.14;99208.03;1696753;83;21500;-54
2021/06/28 06:20:12;;;;;;;0.90;0.80;;;;;;;22.12;62.89;99216.27;1695638;83;21627;-54
2021/06/28 06:22:39;;;;;;;0.80;0.70;;;;;;;22.15;62.83;99214.59;1693691;82;21089;-56
2021/06/28 06:25:06;;;;;;;1.00;0.70;;;;;;;22.24;62.91;99218.25;1694367;82;21065;-55
2021/06/28 06:27:33;;;;;;;1.25;0.60;;;;;;;22.34;62.46;99222.27;1693568;83;20919;-55
2021/06/28 06:29:59;;;;;;;0.62;0.62;;;;;;;22.45;62.52;99211.03;1695050;82;21129;-55
2021/06/28 06:32:26;;;;;;;5.40;1.10;;;;;;;22.58;62.73;99217.78;1689389;83;21145;-56
2021/06/28 06:34:52;;;;;;;1.40;0.70;;;;;;;22.71;62.37;99211.86;1690908;83;21066;-55
2021/06/28 06:37:18;;;;;;;3.10;0.80;;;;;;;22.82;61.77;99221.70;1692033;83;21078;-54
2021/06/28 06:39:44;;;;;;;1.00;0.80;;;;;;;22.85;61.78;99216.75;1693892;82;21059;-56
2021/06/28 06:42:11;;;;;;;2.10;0.70;;;;;;;22.88;61.31;99216.95;1675706;83;21146;-55
2021/06/28 06:44:37;;;;;;;1.10;0.70;;;;;;;22.86;61.19;99219.85;1666784;83;21058;-56
2021/06/28 06:47:04;;;;;;;1.50;0.78;;;;;;;22.80;60.83;99221.00;1691463;82;21123;-54
2021/06/28 06:49:30;;;;;;;1.00;0.70;;;;;;;22.73;60.71;99226.77;1690769;82;21084;-54
2021/06/28 06:51:56;;;;;;;0.70;0.70;;;;;;;22.68;60.85;99231.89;1691709;82;21114;-54
2021/06/28 06:54:23;;;;;;;1.00;0.60;;;;;;;22.63;61.10;99232.36;1691188;82;21105;-55
2021/06/28 06:56:50;;;;;;;0.50;0.50;;;;;;;22.68;61.75;99234.63;1687097;82;21108;-55
2021/06/28 06:59:16;;;;;;;1.00;0.60;;;;;;;22.74;61.26;99240.36;1691112;82;22255;-55
2021/06/28 07:01:43;;;;;;;3.15;0.70;;;;;;;22.81;60.50;99242.78;1689096;82;21775;-56
2021/06/28 07:04:09;;;;;;;0.60;0.60;;;;;;;22.86;60.38;99234.94;1688085;82;22803;-54
2021/06/28 07:06:36;;;;;;;0.65;0.57;;;;;;;22.94;60.73;99242.34;1687907;82;21096;-56
2021/06/28 07:09:03;;;;;;;2.92;0.90;;;;;;;23.04;60.69;99243.09;1692529;82;21171;-56
2021/06/28 07:11:30;;;;;;;0.80;0.80;;;;;;;23.09;59.58;99246.69;1693562;82;21076;-53
2021/06/28 07:13:59;;;;;;;4.90;0.70;;;;;;;23.07;59.36;99244.62;1694161;82;21083;-54
2021/06/28 07:16:30;;;;;;;0.68;0.60;;;;;;;23.05;59.33;99253.05;1688632;82;21397;-54
2021/06/28 07:18:53;;;;;;;1.22;0.70;;;;;;;22.99;59.30;99253.68;1686759;82;21162;-56
2021/06/28 07:21:19;;;;;;;1.32;0.70;;;;;;;22.91;59.48;99248.16;1688527;82;21170;-55
2021/06/28 07:23:48;;;;;;;0.98;0.80;;;;;;;22.88;59.78;99254.00;1691389;82;21012;-57
2021/06/28 07:26:15;;;;;;;0.82;0.60;;;;;;;22.85;59.69;99255.17;1691004;82;21345;-54
2021/06/28 07:28:41;;;;;;;1.95;0.70;;;;;;;22.83;59.93;99252.23;1692148;82;21123;-56
2021/06/28 07:31:08;;;;;;;0.65;0.65;;;;;;;22.80;60.15;99249.30;1686566;82;21123;-55
2021/06/28 07:33:38;;;;;;;3.10;0.70;;;;;;;22.83;60.55;99255.84;1692038;82;21012;-56
2021/06/28 07:36:04;;;;;;;0.75;0.70;;;;;;;22.89;60.39;99251.56;1692270;82;21111;-53
2021/06/28 07:38:30;;;;;;;0.68;0.68;;;;;;;22.95;60.46;99258.66;1687162;82;21064;-55
2021/06/28 07:40:57;;;;;;;1.45;0.75;;;;;;;22.99;60.09;99252.30;1688820;82;21071;-54
2021/06/28 07:43:23;;;;;;;1.42;0.70;;;;;;;23.02;59.74;99256.11;1690635;82;21570;-54
2021/06/28 07:45:50;;;;;;;0.80;0.80;;;;;;;23.01;59.21;99254.38;1690474;82;21606;-55
2021/06/28 07:48:16;;;;;;;0.68;0.68;;;;;;;22.98;59.15;99257.45;1686401;82;21170;-55
2021/06/28 07:50:44;;;;;;;0.85;0.85;;;;;;;23.00;58.95;99255.41;1691349;82;21092;-54
2021/06/28 07:53:10;;;;;;;1.07;0.60;;;;;;;22.99;59.02;99250.94;1690451;82;21114;-55
2021/06/28 07:55:38;;;;;;;1.17;1.07;;;;;;;23.00;59.59;99250.78;1687212;82;21119;-56
2021/06/28 07:58:05;;;;;;;1.27;0.72;;;;;;;23.06;59.68;99257.48;1692942;82;21039;-56
2021/06/28 08:00:31;;;;;;;1.27;0.70;;;;;;;23.12;59.24;99253.23;1688723;82;21068;-57
2021/06/28 08:02:57;;;;;;;1.77;0.70;;;;;;;23.21;59.53;99254.47;1688397;82;21106;-55
2021/06/28 08:05:25;;;;;;;1.70;0.70;;;;;;;23.30;59.73;99252.62;1686574;82;21350;-57
2021/06/28 08:07:51;;;;;;;1.95;0.50;;;;;;;23.42;59.61;99254.52;1690518;82;21670;-55
2021/06/28 08:10:17;;;;;;;1.98;0.60;;;;;;;23.52;57.82;99258.88;1670022;82;21094;-56
2021/06/28 08:12:48;;;;;;;1.42;0.65;;;;;;;23.58;57.48;99258.70;1659780;82;22409;-55
2021/06/28 08:15:17;;;;;;;0.60;0.60;;;;;;;23.63;57.67;99255.82;1663285;82;22258;-54
2021/06/28 08:17:43;;;;;;;2.12;0.60;;;;;;;23.76;57.74;99263.55;1659058;82;21143;-55
2021/06/28 08:20:11;;;;;;;1.10;0.93;;;;;;;23.83;57.46;99263.73;1661310;82;21137;-56
2021/06/28 08:22:38;;;;;;;0.93;0.70;;;;;;;23.87;56.95;99261.86;1686039;82;21155;-58
2021/06/28 08:25:07;;;;;;;2.25;0.70;;;;;;;23.91;56.94;99267.86;1677207;82;21133;-56
2021/06/28 08:27:34;;;;;;;0.70;0.70;;;;;;;23.95;56.84;99267.36;1679101;82;21129;-55
2021/06/28 08:30:05;;;;;;;2.92;0.70;;;;;;;23.98;56.83;99257.41;1677701;82;21134;-56
2021/06/28 08:32:31;;;;;;;1.40;0.80;;;;;;;24.03;57.27;99267.37;1678456;82;21844;-54
2021/06/28 08:34:59;;;;;;;0.70;0.62;;;;;;;24.03;56.90;99270.12;1679030;82;21243;-56
2021/06/28 08:37:27;;;;;;;0.50;0.50;;;;;;;24.00;56.31;99275.94;1681816;82;21054;-55
2021/06/28 08:39:53;;;;;;;0.82;0.50;;;;;;;23.97;55.38;99270.81;1673394;83;20943;-56
2021/06/28 08:42:20;;;;;;;0.60;0.60;;;;;;;23.96;55.26;99268.23;1681375;82;21396;-57
2021/06/28 08:44:47;;;;;;;0.60;0.60;;;;;;;23.98;55.79;99274.42;1684264;82;22318;-54
2021/06/28 08:47:13;;;;;;;2.85;0.70;;;;;;;24.04;55.96;99273.73;1678780;82;21089;-56
2021/06/28 08:49:40;;;;;;;0.68;0.55;;;;;;;24.06;56.27;99269.78;1677237;82;21138;-57
2021/06/28 08:52:07;;;;;;;3.98;0.60;;;;;;;24.08;55.32;99281.45;1686389;82;21088;-56
2021/06/28 08:54:34;;;;;;;1.70;0.60;;;;;;;24.11;55.63;99283.86;1686091;82;21116;-57
2021/06/28 08:57:00;;;;;;;0.75;0.60;;;;;;;24.14;55.67;99279.41;1720492;80;21600;-56
2021/06/28 08:59:27;;;;;;;0.50;0.50;;;;;;;24.19;54.91;99287.64;1720730;80;21105;-57
2021/06/28 09:01:53;;;;;;;2.08;0.70;;;;;;;24.16;54.81;99291.58;1722796;80;20943;-56
2021/06/28 09:04:21;;;;;;;0.68;0.50;;;;;;;24.14;54.83;99292.30;1720635;80;20934;-53
2021/06/28 09:06:48;;;;;;;0.60;0.60;;;;;;;24.12;55.26;99296.58;1723833;80;21002;-55
2021/06/28 09:09:16;;;;;;;0.60;0.60;;;;;;;24.17;55.79;99293.30;1727212;80;21828;-56
2021/06/28 09:11:46;;;;;;;0.80;0.60;;;;;;;24.22;55.21;99291.47;1733317;80;20970;-54
2021/06/28 09:14:14;;;;;;;0.60;0.60;;;;;;;24.27;55.16;99286.30;1737522;80;21003;-57
2021/06/28 09:16:42;;;;;;;1.32;0.60;;;;;;;24.30;55.64;99303.84;1738957;80;20931;-54
2021/06/28 09:19:17;;;;;;;1.07;0.42;;;;;;;24.32;55.32;99301.78;1735510;80;21050;-56
2021/06/28 09:21:46;;;;;;;;;;;;;;;24.36;54.87;99299.02;1736088;80;21094;-56
2021/06/28 09:24:30;;;;;;;0.50;0.50;;;;;;;24.41;54.44;99291.13;1737838;80;20466;-54
2021/06/28 09:27:22;;;;;;;0.50;0.45;;;;;;;24.48;53.25;99292.14;1738712;80;20975;-54
2021/06/28 09:29:58;;;;;;;0.82;0.50;;;;;;;24.54;53.73;99295.56;1735746;80;21042;-56
2021/06/28 09:32:22;;;;;;;1.60;0.50;;;;;;;24.59;53.53;99290.39;1734929;80;20876;-57
2021/06/28 09:34:51;;;;;;;1.85;0.40;;;;;;;24.62;53.66;99295.55;1737507;80;21148;-55
2021/06/28 09:37:20;;;;;;;0.82;0.60;;;;;;;24.64;53.15;99299.00;1738515;80;20995;-55
2021/06/28 09:39:53;;;;;;;0.50;0.50;;;;;;;24.62;53.22;99299.68;1736882;80;20912;-55
2021/06/28 09:42:22;;;;;;;2.22;0.90;;;;;;;24.59;53.36;99297.78;1740594;80;20916;-56
2021/06/28 09:44:56;;;;;;;0.65;0.50;;;;;;;24.57;54.18;99300.73;1735255;80;21098;-53
2021/06/28 09:47:27;;;;;;;0.57;0.50;;;;;;;24.58;53.55;99297.47;1738305;80;22166;-53
2021/06/28 09:50:16;;;;;;;1.07;0.50;;;;;;;24.59;53.24;99294.52;1738711;80;21058;-56
2021/06/28 09:52:53;;;;;;;1.40;0.60;;;;;;;24.60;52.97;99300.87;1735417;80;21101;-56
2021/06/28 09:55:31;;;;;;;1.00;0.50;;;;;;;24.65;53.14;99302.09;1737676;80;21591;-55
2021/06/28 09:58:26;;;;;;;0.60;0.60;;;;;;;24.72;54.11;99297.61;1737593;80;20872;-54
2021/06/28 10:00:50;;;;;;;1.20;0.65;;;;;;;24.85;54.73;99299.28;1733369;80;21090;-57
2021/06/28 10:03:45;;;;;;;1.70;0.50;;;;;;;24.96;54.15;99299.47;1730836;80;21327;-54
2021/06/28 10:08:51;;;;;;;1.02;0.60;;;;;;;24.95;53.27;99293.62;1738261;80;20864;-53
2021/06/28 10:11:22;;;;;;;0.60;0.60;;;;;;;24.93;52.87;99290.17;1725635;80;20911;-55
2021/06/28 10:14:00;;;;;;;1.98;0.60;;;;;;;24.87;52.52;99293.09;1711770;80;21089;-55
2021/06/28 10:16:29;;;;;;;1.45;0.60;;;;;;;24.80;53.08;99296.73;1723555;80;20974;-53
2021/06/28 10:18:56;;;;;;;0.50;0.50;;;;;;;24.69;52.10;99305.34;1723524;80;21456;-53
2021/06/28 10:21:23;;;;;;;3.35;0.50;;;;;;;24.61;52.59;99301.22;1716660;80;21129;-55
2021/06/28 10:23:49;;;;;;;1.35;0.60;;;;;;;24.59;53.26;99311.54;1722152;80;21113;-56
2021/06/28 10:26:16;;;;;;;0.70;0.60;;;;;;;24.58;53.60;99304.34;1719735;80;21097;-54
2021/06/28 10:28:43;;;;;;;1.60;0.70;;;;;;;24.55;53.84;99306.92;1723086;80;20923;-54
2021/06/28 10:31:10;;;;;;;1.05;0.60;;;;;;;24.54;53.85;99305.71;1725010;80;20926;-53
2021/06/28 10:33:37;;;;;;;0.50;0.50;;;;;;;24.54;54.07;99307.95;1723603;80;20946;-56
2021/06/28 10:36:08;;;;;;;0.78;0.60;;;;;;;24.53;54.38;99308.98;1725628;80;21057;-54
2021/06/28 10:38:53;;;;;;;0.60;0.60;;;;;;;24.58;54.31;99302.45;1724951;80;21134;-54
2021/06/28 10:41:41;;;;;;;1.30;0.60;;;;;;;24.66;54.32;99301.06;1715294;80;21065;-55
2021/06/28 10:44:16;;;;;;;1.98;0.60;;;;;;;24.72;53.50;99298.98;1722002;80;21552;-56
2021/06/28 10:46:45;;;;;;;1.40;0.60;;;;;;;24.82;53.46;99306.54;1719280;80;21148;-56
2021/06/28 10:49:13;;;;;;;1.35;0.70;;;;;;;24.87;53.48;99297.22;1725239;80;22573;-54
2021/06/28 10:51:47;;;;;;;1.02;0.60;;;;;;;24.92;53.58;99298.13;1726880;80;21378;-53
2021/06/28 10:54:18;;;;;;;0.70;0.60;;;;;;;25.02;53.31;99307.02;1730668;80;21034;-53
2021/06/28 10:56:52;;;;;;;0.93;0.50;;;;;;;25.11;53.43;99307.33;1720253;80;21080;-55
2021/06/28 10:59:21;;;;;;;;;;;;;;;25.20;53.33;99304.03;1726088;80;21623;-53
2021/06/28 11:01:58;;;;;;;0.40;0.40;;;;;;;25.28;52.15;99306.75;1718869;80;20293;-54
2021/06/28 11:04:31;;;;;;;2.05;0.50;;;;;;;25.29;51.18;99313.12;1719989;80;21579;-55
2021/06/28 11:07:04;;;;;;;2.05;0.60;;;;;;;25.22;51.48;99312.98;1721401;80;21333;-56
2021/06/28 11:09:38;;;;;;;0.95;0.50;;;;;;;25.18;51.29;99318.48;1726767;80;21025;-56
2021/06/28 11:12:08;;;;;;;0.62;0.50;;;;;;;25.17;51.79;99318.17;1735263;80;21039;-56
2021/06/28 11:14:38;;;;;;;1.25;0.50;;;;;;;25.14;52.21;99315.25;1740406;80;20970;-54
2021/06/28 11:17:11;;;;;;;1.47;0.40;;;;;;;25.11;51.34;99305.95;1737363;80;21059;-57
2021/06/28 11:19:49;;;;;;;4.90;0.60;;;;;;;25.03;51.44;99303.74;1736342;80;21317;-55
2021/06/28 11:22:34;;;;;;;0.60;0.53;;;;;;;24.93;51.74;99301.70;1732175;80;21090;-54
2021/06/28 11:25:13;;;;;;;0.98;0.50;;;;;;;24.86;51.76;99303.76;1733651;80;21050;-54
2021/06/28 11:27:44;;;;;;;0.90;0.50;;;;;;;24.88;51.89;99304.45;1741229;80;21406;-55
2021/06/28 11:30:18;;;;;;;0.85;0.40;;;;;;;24.93;52.20;99305.83;1737966;80;22020;-56
2021/06/28 11:33:09;;;;;;;0.60;0.55;;;;;;;25.03;52.22;99302.36;1735923;80;21137;-57
2021/06/28 11:35:50;;;;;;;1.95;0.50;;;;;;;25.12;51.25;99299.41;1735746;80;21583;-56
2021/06/28 11:38:24;;;;;;;4.78;0.55;;;;;;;25.23;52.02;99304.55;1740363;80;20986;-54
2021/06/28 11:41:03;;;;;;;;;;;;;;;25.34;52.17;99307.44;1738446;80;21006;-55
2021/06/28 11:43:50;;;;;;;1.87;0.50;;;;;;;25.48;51.81;99306.67;1734489;80;21131;-56